sensor_id;sensor_type;location;lat;lon;timestamp;temperature;humidity
10300;DHT22;5195;48.562;9.192;2023-02-28T00:01:40;1.20;36.80
10300;DHT22;5195;48.562;9.192;2023-02-28T00:04:16;0.80;38.00
10300;DHT22;5195;48.562;9.192;2023-02-28T00:06:52;0.80;37.30
10300;DHT22;5195;48.562;9.192;2023-02-28T00:09:30;0.50;38.20
10300;DHT22;5195;48.562;9.192;2023-02-28T00:12:05;0.50;37.90
10300;DHT22;5195;48.562;9.192;2023-02-28T00:14:41;0.70;38.20
10300;DHT22;5195;48.562;9.192;2023-02-28T00:17:16;1.10;37.70
10300;DHT22;5195;48.562;9.192;2023-02-28T00:19:55;1.50;37.10
10300;DHT22;5195;48.562;9.192;2023-02-28T00:22:33;1.40;36.90
10300;DHT22;5195;48.562;9.192;2023-02-28T00:25:09;1.50;37.10
10300;DHT22;5195;48.562;9.192;2023-02-28T00:27:46;1.70;36.70
10300;DHT22;5195;48.562;9.192;2023-02-28T00:30:22;1.90;36.30
10300;DHT22;5195;48.562;9.192;2023-02-28T00:32:57;2.10;36.00
10300;DHT22;5195;48.562;9.192;2023-02-28T00:35:32;2.20;35.70
10300;DHT22;5195;48.562;9.192;2023-02-28T00:38:08;1.90;36.00
10300;DHT22;5195;48.562;9.192;2023-02-28T00:40:43;1.50;36.50
10300;DHT22;5195;48.562;9.192;2023-02-28T00:43:19;1.50;37.00
10300;DHT22;5195;48.562;9.192;2023-02-28T00:45:54;1.70;36.80
10300;DHT22;5195;48.562;9.192;2023-02-28T00:48:30;1.90;36.50
10300;DHT22;5195;48.562;9.192;2023-02-28T00:51:06;2.00;36.30
10300;DHT22;5195;48.562;9.192;2023-02-28T00:53:41;1.80;36.50
10300;DHT22;5195;48.562;9.192;2023-02-28T00:56:17;1.40;36.90
10300;DHT22;5195;48.562;9.192;2023-02-28T00:58:52;1.10;37.50
10300;DHT22;5195;48.562;9.192;2023-02-28T01:01:29;1.40;37.70
10300;DHT22;5195;48.562;9.192;2023-02-28T01:04:04;1.40;37.70
10300;DHT22;5195;48.562;9.192;2023-02-28T01:06:41;1.50;37.30
10300;DHT22;5195;48.562;9.192;2023-02-28T01:09:16;1.50;37.20
10300;DHT22;5195;48.562;9.192;2023-02-28T01:11:52;1.50;37.40
10300;DHT22;5195;48.562;9.192;2023-02-28T01:14:27;1.70;37.20
10300;DHT22;5195;48.562;9.192;2023-02-28T01:17:03;1.50;37.20
10300;DHT22;5195;48.562;9.192;2023-02-28T01:19:38;1.50;37.50
10300;DHT22;5195;48.562;9.192;2023-02-28T01:22:14;1.30;37.50
10300;DHT22;5195;48.562;9.192;2023-02-28T01:24:49;1.00;37.90
10300;DHT22;5195;48.562;9.192;2023-02-28T01:27:25;0.80;38.30
10300;DHT22;5195;48.562;9.192;2023-02-28T01:30:01;0.90;38.70
10300;DHT22;5195;48.562;9.192;2023-02-28T01:32:36;1.30;38.50
10300;DHT22;5195;48.562;9.192;2023-02-28T01:35:13;1.30;38.30
10300;DHT22;5195;48.562;9.192;2023-02-28T01:37:48;1.30;38.40
10300;DHT22;5195;48.562;9.192;2023-02-28T01:40:24;1.20;38.40
10300;DHT22;5195;48.562;9.192;2023-02-28T01:43:00;1.00;38.70
10300;DHT22;5195;48.562;9.192;2023-02-28T01:45:35;1.10;39.10
10300;DHT22;5195;48.562;9.192;2023-02-28T01:48:11;1.00;38.90
10300;DHT22;5195;48.562;9.192;2023-02-28T01:50:46;0.80;39.20
10300;DHT22;5195;48.562;9.192;2023-02-28T01:53:24;0.80;39.90
10300;DHT22;5195;48.562;9.192;2023-02-28T01:56:00;0.80;39.90
10300;DHT22;5195;48.562;9.192;2023-02-28T01:58:35;0.90;39.80
10300;DHT22;5195;48.562;9.192;2023-02-28T02:01:11;0.70;39.90
10300;DHT22;5195;48.562;9.192;2023-02-28T02:03:48;0.90;40.00
10300;DHT22;5195;48.562;9.192;2023-02-28T02:06:40;0.90;40.00
10300;DHT22;5195;48.562;9.192;2023-02-28T02:09:12;0.60;40.60
10300;DHT22;5195;48.562;9.192;2023-02-28T02:11:48;0.60;40.60
10300;DHT22;5195;48.562;9.192;2023-02-28T02:17:31;0.90;40.50
10300;DHT22;5195;48.562;9.192;2023-02-28T02:23:15;0.60;40.70
10300;DHT22;5195;48.562;9.192;2023-02-28T02:29:08;0.90;40.40
10300;DHT22;5195;48.562;9.192;2023-02-28T02:37:51;1.40;39.80
10300;DHT22;5195;48.562;9.192;2023-02-28T02:40:27;1.40;39.80
10300;DHT22;5195;48.562;9.192;2023-02-28T02:43:03;1.30;39.70
10300;DHT22;5195;48.562;9.192;2023-02-28T02:45:42;1.00;40.10
10300;DHT22;5195;48.562;9.192;2023-02-28T02:48:17;1.10;40.40
10300;DHT22;5195;48.562;9.192;2023-02-28T02:50:59;1.60;39.90
10300;DHT22;5195;48.562;9.192;2023-02-28T02:53:33;1.60;39.60
10300;DHT22;5195;48.562;9.192;2023-02-28T02:56:07;1.50;39.60
10300;DHT22;5195;48.562;9.192;2023-02-28T02:58:43;1.10;40.00
10300;DHT22;5195;48.562;9.192;2023-02-28T03:01:20;0.90;40.50
10300;DHT22;5195;48.562;9.192;2023-02-28T03:03:57;0.70;40.80
10300;DHT22;5195;48.562;9.192;2023-02-28T03:06:31;0.80;41.10
10300;DHT22;5195;48.562;9.192;2023-02-28T03:09:07;1.20;40.90
10300;DHT22;5195;48.562;9.192;2023-02-28T03:11:42;1.10;40.50
10300;DHT22;5195;48.562;9.192;2023-02-28T03:19:47;1.40;40.30
10300;DHT22;5195;48.562;9.192;2023-02-28T03:22:41;1.70;40.00
10300;DHT22;5195;48.562;9.192;2023-02-28T03:25:20;1.70;40.00
10300;DHT22;5195;48.562;9.192;2023-02-28T03:31:44;1.30;40.40
10300;DHT22;5195;48.562;9.192;2023-02-28T03:33:39;0.90;40.70
10300;DHT22;5195;48.562;9.192;2023-02-28T03:36:17;1.00;41.20
10300;DHT22;5195;48.562;9.192;2023-02-28T03:38:53;1.00;41.10
10300;DHT22;5195;48.562;9.192;2023-02-28T03:41:46;1.20;41.20
10300;DHT22;5195;48.562;9.192;2023-02-28T03:44:21;1.20;41.10
10300;DHT22;5195;48.562;9.192;2023-02-28T03:47:00;1.00;41.40
10300;DHT22;5195;48.562;9.192;2023-02-28T03:49:36;1.10;41.70
10300;DHT22;5195;48.562;9.192;2023-02-28T03:52:10;1.40;41.40
10300;DHT22;5195;48.562;9.192;2023-02-28T03:54:48;1.70;40.70
10300;DHT22;5195;48.562;9.192;2023-02-28T03:57:40;1.70;40.60
10300;DHT22;5195;48.562;9.192;2023-02-28T04:00:17;1.70;40.50
10300;DHT22;5195;48.562;9.192;2023-02-28T04:02:50;1.70;41.10
10300;DHT22;5195;48.562;9.192;2023-02-28T04:05:25;1.50;41.10
10300;DHT22;5195;48.562;9.192;2023-02-28T04:08:05;1.30;41.50
10300;DHT22;5195;48.562;9.192;2023-02-28T04:10:40;1.10;42.20
10300;DHT22;5195;48.562;9.192;2023-02-28T04:13:16;1.10;42.20
10300;DHT22;5195;48.562;9.192;2023-02-28T04:15:51;1.10;42.10
10300;DHT22;5195;48.562;9.192;2023-02-28T04:18:27;0.90;42.30
10300;DHT22;5195;48.562;9.192;2023-02-28T04:21:04;0.70;42.50
10300;DHT22;5195;48.562;9.192;2023-02-28T04:23:39;0.90;42.90
10300;DHT22;5195;48.562;9.192;2023-02-28T04:26:16;1.30;42.60
10300;DHT22;5195;48.562;9.192;2023-02-28T04:28:52;1.30;42.10
10300;DHT22;5195;48.562;9.192;2023-02-28T04:31:27;1.00;42.20
10300;DHT22;5195;48.562;9.192;2023-02-28T04:34:03;0.90;42.60
10300;DHT22;5195;48.562;9.192;2023-02-28T04:36:39;0.70;42.70
10300;DHT22;5195;48.562;9.192;2023-02-28T04:39:15;0.80;43.30
10300;DHT22;5195;48.562;9.192;2023-02-28T04:41:50;0.80;43.30
10300;DHT22;5195;48.562;9.192;2023-02-28T04:44:26;0.90;43.20
10300;DHT22;5195;48.562;9.192;2023-02-28T04:47:01;1.00;42.90
10300;DHT22;5195;48.562;9.192;2023-02-28T04:49:37;1.10;42.70
10300;DHT22;5195;48.562;9.192;2023-02-28T04:52:12;0.90;42.80
10300;DHT22;5195;48.562;9.192;2023-02-28T04:54:48;1.10;42.60
10300;DHT22;5195;48.562;9.192;2023-02-28T04:57:24;1.40;42.70
10300;DHT22;5195;48.562;9.192;2023-02-28T04:59:59;1.40;42.50
10300;DHT22;5195;48.562;9.192;2023-02-28T05:02:37;1.40;42.50
10300;DHT22;5195;48.562;9.192;2023-02-28T05:05:12;1.70;42.20
10300;DHT22;5195;48.562;9.192;2023-02-28T05:07:47;1.60;42.00
10300;DHT22;5195;48.562;9.192;2023-02-28T05:10:23;1.60;42.30
10300;DHT22;5195;48.562;9.192;2023-02-28T05:12:58;1.80;41.90
10300;DHT22;5195;48.562;9.192;2023-02-28T05:15:34;2.00;41.60
10300;DHT22;5195;48.562;9.192;2023-02-28T05:18:11;1.90;41.60
10300;DHT22;5195;48.562;9.192;2023-02-28T05:20:47;2.00;41.50
10300;DHT22;5195;48.562;9.192;2023-02-28T05:23:23;2.00;41.50
10300;DHT22;5195;48.562;9.192;2023-02-28T05:25:58;2.20;41.20
10300;DHT22;5195;48.562;9.192;2023-02-28T05:28:35;2.30;40.80
10300;DHT22;5195;48.562;9.192;2023-02-28T05:31:15;2.10;40.90
10300;DHT22;5195;48.562;9.192;2023-02-28T05:33:51;1.70;41.90
10300;DHT22;5195;48.562;9.192;2023-02-28T05:36:28;1.70;41.90
10300;DHT22;5195;48.562;9.192;2023-02-28T05:39:05;1.90;41.80
10300;DHT22;5195;48.562;9.192;2023-02-28T05:41:41;2.20;41.60
10300;DHT22;5195;48.562;9.192;2023-02-28T05:44:16;2.30;41.20
10300;DHT22;5195;48.562;9.192;2023-02-28T05:46:53;2.10;41.20
10300;DHT22;5195;48.562;9.192;2023-02-28T05:49:29;2.00;41.50
10300;DHT22;5195;48.562;9.192;2023-02-28T05:52:05;2.20;41.40
10300;DHT22;5195;48.562;9.192;2023-02-28T05:54:41;1.90;41.30
10300;DHT22;5195;48.562;9.192;2023-02-28T05:57:17;1.60;41.80
10300;DHT22;5195;48.562;9.192;2023-02-28T05:59:53;1.70;42.40
10300;DHT22;5195;48.562;9.192;2023-02-28T06:02:29;1.60;42.30
10300;DHT22;5195;48.562;9.192;2023-02-28T06:05:05;1.40;42.50
10300;DHT22;5195;48.562;9.192;2023-02-28T06:07:40;1.10;42.70
10300;DHT22;5195;48.562;9.192;2023-02-28T06:10:16;1.30;43.00
10300;DHT22;5195;48.562;9.192;2023-02-28T06:12:51;1.30;42.90
10300;DHT22;5195;48.562;9.192;2023-02-28T06:15:28;1.00;43.30
10300;DHT22;5195;48.562;9.192;2023-02-28T06:18:03;1.00;43.30
10300;DHT22;5195;48.562;9.192;2023-02-28T06:20:39;0.90;43.50
10300;DHT22;5195;48.562;9.192;2023-02-28T06:23:15;0.80;43.70
10300;DHT22;5195;48.562;9.192;2023-02-28T06:25:50;0.70;43.80
10300;DHT22;5195;48.562;9.192;2023-02-28T06:28:26;1.00;43.80
10300;DHT22;5195;48.562;9.192;2023-02-28T06:31:09;1.40;43.20
10300;DHT22;5195;48.562;9.192;2023-02-28T06:33:44;1.30;43.10
10300;DHT22;5195;48.562;9.192;2023-02-28T06:36:19;1.40;42.80
10300;DHT22;5195;48.562;9.192;2023-02-28T06:38:55;1.20;43.00
10300;DHT22;5195;48.562;9.192;2023-02-28T06:41:31;1.10;43.20
10300;DHT22;5195;48.562;9.192;2023-02-28T06:44:17;1.00;43.40
10300;DHT22;5195;48.562;9.192;2023-02-28T06:46:52;0.90;43.50
10300;DHT22;5195;48.562;9.192;2023-02-28T06:49:29;1.20;43.30
10300;DHT22;5195;48.562;9.192;2023-02-28T06:52:04;1.30;43.10
10300;DHT22;5195;48.562;9.192;2023-02-28T06:54:41;1.20;43.10
10300;DHT22;5195;48.562;9.192;2023-02-28T06:57:17;1.10;43.30
10300;DHT22;5195;48.562;9.192;2023-02-28T06:59:52;1.00;43.40
10300;DHT22;5195;48.562;9.192;2023-02-28T07:02:29;1.00;43.60
10300;DHT22;5195;48.562;9.192;2023-02-28T07:05:07;1.20;43.40
10300;DHT22;5195;48.562;9.192;2023-02-28T07:07:42;1.30;43.10
10300;DHT22;5195;48.562;9.192;2023-02-28T07:10:18;1.30;43.10
10300;DHT22;5195;48.562;9.192;2023-02-28T07:12:54;1.40;42.90
10300;DHT22;5195;48.562;9.192;2023-02-28T07:15:29;1.50;42.70
10300;DHT22;5195;48.562;9.192;2023-02-28T07:18:05;1.70;42.60
10300;DHT22;5195;48.562;9.192;2023-02-28T07:20:40;1.70;42.50
10300;DHT22;5195;48.562;9.192;2023-02-28T07:23:17;2.10;41.70
10300;DHT22;5195;48.562;9.192;2023-02-28T07:25:52;2.10;41.70
10300;DHT22;5195;48.562;9.192;2023-02-28T07:28:28;2.10;41.60
10300;DHT22;5195;48.562;9.192;2023-02-28T07:31:04;2.10;41.50
10300;DHT22;5195;48.562;9.192;2023-02-28T07:33:40;2.10;41.50
10300;DHT22;5195;48.562;9.192;2023-02-28T07:36:16;2.10;41.50
10300;DHT22;5195;48.562;9.192;2023-02-28T07:38:52;2.40;41.10
10300;DHT22;5195;48.562;9.192;2023-02-28T07:41:28;2.60;40.70
10300;DHT22;5195;48.562;9.192;2023-02-28T07:44:04;2.60;40.40
10300;DHT22;5195;48.562;9.192;2023-02-28T07:46:40;2.60;40.40
10300;DHT22;5195;48.562;9.192;2023-02-28T07:49:15;2.30;40.90
10300;DHT22;5195;48.562;9.192;2023-02-28T07:51:52;1.80;42.00
10300;DHT22;5195;48.562;9.192;2023-02-28T07:54:27;1.80;42.00
10300;DHT22;5195;48.562;9.192;2023-02-28T07:57:03;1.60;42.20
10300;DHT22;5195;48.562;9.192;2023-02-28T07:59:38;1.50;42.50
10300;DHT22;5195;48.562;9.192;2023-02-28T08:02:15;1.50;42.70
10300;DHT22;5195;48.562;9.192;2023-02-28T08:04:50;1.70;42.60
10300;DHT22;5195;48.562;9.192;2023-02-28T08:07:25;1.80;42.40
10300;DHT22;5195;48.562;9.192;2023-02-28T08:10:02;1.90;42.40
10300;DHT22;5195;48.562;9.192;2023-02-28T08:12:37;1.90;42.40
10300;DHT22;5195;48.562;9.192;2023-02-28T08:15:13;2.00;42.40
10300;DHT22;5195;48.562;9.192;2023-02-28T08:17:48;2.10;41.90
10300;DHT22;5195;48.562;9.192;2023-02-28T08:20:24;2.20;41.90
10300;DHT22;5195;48.562;9.192;2023-02-28T08:23:00;2.70;40.80
10300;DHT22;5195;48.562;9.192;2023-02-28T08:25:36;2.60;40.70
10300;DHT22;5195;48.562;9.192;2023-02-28T08:28:11;2.60;40.70
10300;DHT22;5195;48.562;9.192;2023-02-28T08:30:47;2.90;39.80
10300;DHT22;5195;48.562;9.192;2023-02-28T08:33:23;2.80;39.70
10300;DHT22;5195;48.562;9.192;2023-02-28T08:35:59;2.80;39.90
10300;DHT22;5195;48.562;9.192;2023-02-28T08:38:35;2.60;40.30
10300;DHT22;5195;48.562;9.192;2023-02-28T08:41:11;2.40;40.80
10300;DHT22;5195;48.562;9.192;2023-02-28T08:43:45;2.50;40.30
10300;DHT22;5195;48.562;9.192;2023-02-28T08:46:22;2.80;39.70
10300;DHT22;5195;48.562;9.192;2023-02-28T08:48:57;3.20;39.00
10300;DHT22;5195;48.562;9.192;2023-02-28T08:51:33;3.40;38.30
10300;DHT22;5195;48.562;9.192;2023-02-28T08:54:09;3.30;38.50
10300;DHT22;5195;48.562;9.192;2023-02-28T08:56:45;3.00;39.10
10300;DHT22;5195;48.562;9.192;2023-02-28T08:59:20;2.70;39.50
10300;DHT22;5195;48.562;9.192;2023-02-28T09:01:56;3.10;38.90
10300;DHT22;5195;48.562;9.192;2023-02-28T09:04:33;3.10;38.90
10300;DHT22;5195;48.562;9.192;2023-02-28T09:07:07;3.20;39.00
10300;DHT22;5195;48.562;9.192;2023-02-28T09:09:44;3.20;38.70
10300;DHT22;5195;48.562;9.192;2023-02-28T09:12:26;3.20;38.70
10300;DHT22;5195;48.562;9.192;2023-02-28T09:15:01;3.00;39.30
10300;DHT22;5195;48.562;9.192;2023-02-28T09:17:37;2.90;39.80
10300;DHT22;5195;48.562;9.192;2023-02-28T09:20:12;3.00;39.00
10300;DHT22;5195;48.562;9.192;2023-02-28T09:22:48;3.10;39.10
10300;DHT22;5195;48.562;9.192;2023-02-28T09:25:24;3.00;39.40
10300;DHT22;5195;48.562;9.192;2023-02-28T09:28:00;3.10;38.70
10300;DHT22;5195;48.562;9.192;2023-02-28T09:30:36;3.20;38.80
10300;DHT22;5195;48.562;9.192;2023-02-28T09:33:12;3.00;39.10
10300;DHT22;5195;48.562;9.192;2023-02-28T09:35:47;2.90;39.30
10300;DHT22;5195;48.562;9.192;2023-02-28T09:38:23;2.80;39.60
10300;DHT22;5195;48.562;9.192;2023-02-28T09:41:00;3.00;39.20
10300;DHT22;5195;48.562;9.192;2023-02-28T09:43:36;3.40;38.40
10300;DHT22;5195;48.562;9.192;2023-02-28T09:49:01;3.70;37.90
10300;DHT22;5195;48.562;9.192;2023-02-28T09:54:41;3.20;39.20
10300;DHT22;5195;48.562;9.192;2023-02-28T09:57:35;3.20;39.20
10300;DHT22;5195;48.562;9.192;2023-02-28T10:03:25;3.00;39.60
10300;DHT22;5195;48.562;9.192;2023-02-28T10:06:07;3.30;38.70
10300;DHT22;5195;48.562;9.192;2023-02-28T10:08:50;3.40;38.80
10300;DHT22;5195;48.562;9.192;2023-02-28T10:11:20;3.40;39.00
10300;DHT22;5195;48.562;9.192;2023-02-28T10:14:01;3.50;38.70
10300;DHT22;5195;48.562;9.192;2023-02-28T10:16:43;3.50;39.30
10300;DHT22;5195;48.562;9.192;2023-02-28T10:22:21;3.60;38.80
10300;DHT22;5195;48.562;9.192;2023-02-28T10:24:56;3.80;37.50
10300;DHT22;5195;48.562;9.192;2023-02-28T10:27:34;4.20;36.80
10300;DHT22;5195;48.562;9.192;2023-02-28T10:30:10;4.20;37.00
10300;DHT22;5195;48.562;9.192;2023-02-28T10:32:50;4.10;37.50
10300;DHT22;5195;48.562;9.192;2023-02-28T10:35:25;4.20;37.10
10300;DHT22;5195;48.562;9.192;2023-02-28T10:38:01;4.30;37.60
10300;DHT22;5195;48.562;9.192;2023-02-28T10:40:36;4.50;37.00
10300;DHT22;5195;48.562;9.192;2023-02-28T10:46:01;4.80;36.40
10300;DHT22;5195;48.562;9.192;2023-02-28T10:48:42;4.80;37.30
10300;DHT22;5195;48.562;9.192;2023-02-28T10:51:18;4.80;37.30
10300;DHT22;5195;48.562;9.192;2023-02-28T10:53:52;5.00;36.30
10300;DHT22;5195;48.562;9.192;2023-02-28T10:56:28;5.30;35.20
10300;DHT22;5195;48.562;9.192;2023-02-28T10:59:26;5.30;35.60
10300;DHT22;5195;48.562;9.192;2023-02-28T11:01:56;5.60;34.50
10300;DHT22;5195;48.562;9.192;2023-02-28T11:04:33;5.60;34.50
10300;DHT22;5195;48.562;9.192;2023-02-28T11:07:20;5.50;34.50
10300;DHT22;5195;48.562;9.192;2023-02-28T11:09:55;5.50;34.50
10300;DHT22;5195;48.562;9.192;2023-02-28T11:12:37;5.40;35.00
10300;DHT22;5195;48.562;9.192;2023-02-28T11:15:23;5.20;35.70
10300;DHT22;5195;48.562;9.192;2023-02-28T11:18:02;5.30;35.00
10300;DHT22;5195;48.562;9.192;2023-02-28T11:20:37;5.70;35.20
10300;DHT22;5195;48.562;9.192;2023-02-28T11:23:13;5.60;35.10
10300;DHT22;5195;48.562;9.192;2023-02-28T11:25:50;5.80;34.80
10300;DHT22;5195;48.562;9.192;2023-02-28T11:28:39;6.20;34.70
10300;DHT22;5195;48.562;9.192;2023-02-28T11:33:50;6.10;35.20
10300;DHT22;5195;48.562;9.192;2023-02-28T11:36:26;6.20;34.60
10300;DHT22;5195;48.562;9.192;2023-02-28T11:39:01;6.60;33.70
10300;DHT22;5195;48.562;9.192;2023-02-28T11:42:11;6.70;34.30
10300;DHT22;5195;48.562;9.192;2023-02-28T11:53:14;7.10;34.30
10300;DHT22;5195;48.562;9.192;2023-02-28T11:55:48;6.90;35.00
10300;DHT22;5195;48.562;9.192;2023-02-28T11:59:03;6.80;35.30
10300;DHT22;5195;48.562;9.192;2023-02-28T12:04:17;7.10;32.50
10300;DHT22;5195;48.562;9.192;2023-02-28T12:07:16;7.10;32.50
10300;DHT22;5195;48.562;9.192;2023-02-28T12:09:56;7.20;32.20
10300;DHT22;5195;48.562;9.192;2023-02-28T12:18:34;7.20;33.00
10300;DHT22;5195;48.562;9.192;2023-02-28T12:26:41;7.00;34.20
10300;DHT22;5195;48.562;9.192;2023-02-28T12:29:21;6.90;34.50
10300;DHT22;5195;48.562;9.192;2023-02-28T12:32:38;6.80;35.00
10300;DHT22;5195;48.562;9.192;2023-02-28T12:34:58;6.80;35.10
10300;DHT22;5195;48.562;9.192;2023-02-28T12:37:56;7.10;33.80
10300;DHT22;5195;48.562;9.192;2023-02-28T12:40:41;7.20;34.00
10300;DHT22;5195;48.562;9.192;2023-02-28T12:43:09;7.50;33.00
10300;DHT22;5195;48.562;9.192;2023-02-28T12:45:46;7.70;32.00
10300;DHT22;5195;48.562;9.192;2023-02-28T12:48:42;7.70;32.60
10300;DHT22;5195;48.562;9.192;2023-02-28T12:51:16;7.60;31.90
10300;DHT22;5195;48.562;9.192;2023-02-28T12:56:50;7.50;32.20
10300;DHT22;5195;48.562;9.192;2023-02-28T12:59:44;7.10;33.10
10300;DHT22;5195;48.562;9.192;2023-02-28T13:08:03;6.30;35.20
10300;DHT22;5195;48.562;9.192;2023-02-28T13:10:41;6.30;35.20
10300;DHT22;5195;48.562;9.192;2023-02-28T13:13:20;6.20;35.40
10300;DHT22;5195;48.562;9.192;2023-02-28T13:16:02;6.20;35.90
10300;DHT22;5195;48.562;9.192;2023-02-28T13:18:41;6.50;35.00
10300;DHT22;5195;48.562;9.192;2023-02-28T13:21:22;6.70;34.90
10300;DHT22;5195;48.562;9.192;2023-02-28T13:24:03;6.70;35.20
10300;DHT22;5195;48.562;9.192;2023-02-28T13:42:48;6.90;34.70
10300;DHT22;5195;48.562;9.192;2023-02-28T13:45:28;7.40;33.40
10300;DHT22;5195;48.562;9.192;2023-02-28T13:48:15;7.40;33.40
10300;DHT22;5195;48.562;9.192;2023-02-28T13:50:40;7.40;34.10
10300;DHT22;5195;48.562;9.192;2023-02-28T13:53:25;7.20;34.60
10300;DHT22;5195;48.562;9.192;2023-02-28T13:58:43;7.30;34.20
10300;DHT22;5195;48.562;9.192;2023-02-28T14:01:30;7.20;34.60
10300;DHT22;5195;48.562;9.192;2023-02-28T14:06:48;7.20;34.10
10300;DHT22;5195;48.562;9.192;2023-02-28T14:09:27;7.20;34.10
10300;DHT22;5195;48.562;9.192;2023-02-28T14:15:49;7.50;33.60
10300;DHT22;5195;48.562;9.192;2023-02-28T14:18:28;7.50;34.10
10300;DHT22;5195;48.562;9.192;2023-02-28T14:24:51;7.20;35.00
10300;DHT22;5195;48.562;9.192;2023-02-28T14:27:11;7.00;35.20
10300;DHT22;5195;48.562;9.192;2023-02-28T14:33:01;7.00;35.70
10300;DHT22;5195;48.562;9.192;2023-02-28T14:41:33;6.90;36.00
10300;DHT22;5195;48.562;9.192;2023-02-28T14:44:30;7.20;34.60
10300;DHT22;5195;48.562;9.192;2023-02-28T14:47:11;7.60;33.70
10300;DHT22;5195;48.562;9.192;2023-02-28T14:49:46;7.70;34.10
10300;DHT22;5195;48.562;9.192;2023-02-28T14:52:26;7.60;34.60
10300;DHT22;5195;48.562;9.192;2023-02-28T14:55:03;7.50;35.10
10300;DHT22;5195;48.562;9.192;2023-02-28T14:57:40;7.70;33.50
10300;DHT22;5195;48.562;9.192;2023-02-28T15:00:17;8.00;32.70
10300;DHT22;5195;48.562;9.192;2023-02-28T15:02:52;8.10;32.20
10300;DHT22;5195;48.562;9.192;2023-02-28T15:05:31;8.10;32.20
10300;DHT22;5195;48.562;9.192;2023-02-28T15:08:11;8.30;31.50
10300;DHT22;5195;48.562;9.192;2023-02-28T15:10:43;8.20;32.30
10300;DHT22;5195;48.562;9.192;2023-02-28T15:13:18;8.30;31.60
10300;DHT22;5195;48.562;9.192;2023-02-28T15:15:57;8.20;32.40
10300;DHT22;5195;48.562;9.192;2023-02-28T15:18:49;7.90;33.10
10300;DHT22;5195;48.562;9.192;2023-02-28T15:21:29;7.50;34.00
10300;DHT22;5195;48.562;9.192;2023-02-28T15:24:27;7.50;34.00
10300;DHT22;5195;48.562;9.192;2023-02-28T15:26:58;7.70;33.30
10300;DHT22;5195;48.562;9.192;2023-02-28T15:29:37;8.00;33.60
10300;DHT22;5195;48.562;9.192;2023-02-28T15:32:16;7.90;32.90
10300;DHT22;5195;48.562;9.192;2023-02-28T15:34:46;8.50;31.50
10300;DHT22;5195;48.562;9.192;2023-02-28T15:40:18;8.70;31.40
10300;DHT22;5195;48.562;9.192;2023-02-28T15:45:48;8.90;30.50
10300;DHT22;5195;48.562;9.192;2023-02-28T15:48:30;8.90;30.40
10300;DHT22;5195;48.562;9.192;2023-02-28T15:51:08;8.50;31.20
10300;DHT22;5195;48.562;9.192;2023-02-28T15:53:50;8.50;31.20
10300;DHT22;5195;48.562;9.192;2023-02-28T15:56:25;8.00;32.30
10300;DHT22;5195;48.562;9.192;2023-02-28T15:59:05;8.00;31.80
10300;DHT22;5195;48.562;9.192;2023-02-28T16:01:41;7.90;32.50
10300;DHT22;5195;48.562;9.192;2023-02-28T16:04:20;7.60;33.10
10300;DHT22;5195;48.562;9.192;2023-02-28T16:09:35;7.40;33.10
10300;DHT22;5195;48.562;9.192;2023-02-28T16:12:10;7.70;32.60
10300;DHT22;5195;48.562;9.192;2023-02-28T16:14:46;7.60;33.00
10300;DHT22;5195;48.562;9.192;2023-02-28T16:17:23;7.30;33.50
10300;DHT22;5195;48.562;9.192;2023-02-28T16:19:57;7.10;34.00
10300;DHT22;5195;48.562;9.192;2023-02-28T16:22:33;7.10;33.80
10300;DHT22;5195;48.562;9.192;2023-02-28T16:25:17;7.10;33.70
10300;DHT22;5195;48.562;9.192;2023-02-28T16:27:49;6.90;34.10
10300;DHT22;5195;48.562;9.192;2023-02-28T16:30:24;6.70;34.50
10300;DHT22;5195;48.562;9.192;2023-02-28T16:32:59;6.80;34.10
10300;DHT22;5195;48.562;9.192;2023-02-28T16:35:35;7.10;33.50
10300;DHT22;5195;48.562;9.192;2023-02-28T16:38:10;7.40;33.20
10300;DHT22;5195;48.562;9.192;2023-02-28T16:40:46;7.50;32.70
10300;DHT22;5195;48.562;9.192;2023-02-28T16:43:23;7.30;33.20
10300;DHT22;5195;48.562;9.192;2023-02-28T16:45:58;6.90;33.70
10300;DHT22;5195;48.562;9.192;2023-02-28T16:48:34;6.60;34.30
10300;DHT22;5195;48.562;9.192;2023-02-28T16:51:13;6.30;34.70
10300;DHT22;5195;48.562;9.192;2023-02-28T16:53:48;6.10;35.10
10300;DHT22;5195;48.562;9.192;2023-02-28T16:56:24;6.20;35.00
10300;DHT22;5195;48.562;9.192;2023-02-28T16:59:01;6.30;34.70
10300;DHT22;5195;48.562;9.192;2023-02-28T17:01:36;6.30;34.70
10300;DHT22;5195;48.562;9.192;2023-02-28T17:04:12;6.30;34.90
10300;DHT22;5195;48.562;9.192;2023-02-28T17:06:48;6.10;35.00
10300;DHT22;5195;48.562;9.192;2023-02-28T17:09:25;6.10;35.00
10300;DHT22;5195;48.562;9.192;2023-02-28T17:12:01;6.10;35.30
10300;DHT22;5195;48.562;9.192;2023-02-28T17:14:37;6.10;34.90
10300;DHT22;5195;48.562;9.192;2023-02-28T17:17:20;6.60;34.10
10300;DHT22;5195;48.562;9.192;2023-02-28T17:19:55;6.60;34.10
10300;DHT22;5195;48.562;9.192;2023-02-28T17:22:31;6.80;33.90
10300;DHT22;5195;48.562;9.192;2023-02-28T17:25:07;6.90;33.70
10300;DHT22;5195;48.562;9.192;2023-02-28T17:27:42;6.60;34.10
10300;DHT22;5195;48.562;9.192;2023-02-28T17:30:20;5.80;35.40
10300;DHT22;5195;48.562;9.192;2023-02-28T17:32:54;5.80;35.40
10300;DHT22;5195;48.562;9.192;2023-02-28T17:35:29;5.50;35.80
10300;DHT22;5195;48.562;9.192;2023-02-28T17:38:05;5.30;36.10
10300;DHT22;5195;48.562;9.192;2023-02-28T17:40:40;5.40;36.20
10300;DHT22;5195;48.562;9.192;2023-02-28T17:43:16;5.40;36.10
10300;DHT22;5195;48.562;9.192;2023-02-28T17:45:53;5.60;36.10
10300;DHT22;5195;48.562;9.192;2023-02-28T17:48:29;5.90;35.60
10300;DHT22;5195;48.562;9.192;2023-02-28T17:51:04;5.80;35.70
10300;DHT22;5195;48.562;9.192;2023-02-28T17:53:41;5.60;35.90
10300;DHT22;5195;48.562;9.192;2023-02-28T17:56:20;5.60;35.90
10300;DHT22;5195;48.562;9.192;2023-02-28T17:58:55;5.90;35.60
10300;DHT22;5195;48.562;9.192;2023-02-28T18:01:30;5.70;35.70
10300;DHT22;5195;48.562;9.192;2023-02-28T18:04:07;5.40;36.10
10300;DHT22;5195;48.562;9.192;2023-02-28T18:06:43;5.20;36.60
10300;DHT22;5195;48.562;9.192;2023-02-28T18:09:28;5.00;36.90
10300;DHT22;5195;48.562;9.192;2023-02-28T18:12:05;4.80;37.30
10300;DHT22;5195;48.562;9.192;2023-02-28T18:14:42;4.70;37.60
10300;DHT22;5195;48.562;9.192;2023-02-28T18:17:18;4.90;37.30
10300;DHT22;5195;48.562;9.192;2023-02-28T18:19:53;5.30;37.60
10300;DHT22;5195;48.562;9.192;2023-02-28T18:22:29;5.70;36.20
10300;DHT22;5195;48.562;9.192;2023-02-28T18:25:05;5.90;35.60
10300;DHT22;5195;48.562;9.192;2023-02-28T18:27:40;5.80;35.90
10300;DHT22;5195;48.562;9.192;2023-02-28T18:30:16;5.40;36.30
10300;DHT22;5195;48.562;9.192;2023-02-28T18:32:51;5.10;36.70
10300;DHT22;5195;48.562;9.192;2023-02-28T18:35:27;4.80;37.10
10300;DHT22;5195;48.562;9.192;2023-02-28T18:38:13;4.90;37.00
10300;DHT22;5195;48.562;9.192;2023-02-28T18:40:52;4.80;37.00
10300;DHT22;5195;48.562;9.192;2023-02-28T18:43:28;4.90;37.00
10300;DHT22;5195;48.562;9.192;2023-02-28T18:46:07;4.90;37.10
10300;DHT22;5195;48.562;9.192;2023-02-28T18:48:43;4.90;37.10
10300;DHT22;5195;48.562;9.192;2023-02-28T18:51:20;4.80;37.10
10300;DHT22;5195;48.562;9.192;2023-02-28T18:53:56;4.70;37.30
10300;DHT22;5195;48.562;9.192;2023-02-28T18:56:31;4.70;37.30
10300;DHT22;5195;48.562;9.192;2023-02-28T18:59:07;4.50;37.60
10300;DHT22;5195;48.562;9.192;2023-02-28T19:01:42;4.20;38.00
10300;DHT22;5195;48.562;9.192;2023-02-28T19:04:18;4.00;38.30
10300;DHT22;5195;48.562;9.192;2023-02-28T19:06:53;4.20;38.50